Time;durP1;ratioP1;P1;durP2;ratioP2;P2;SDS_P1;SDS_P2;PMS_P1;PMS_P2;Temp;Humidity;BMP_temperature;BMP_pressure;BME280_temperature;BME280_humidity;BME280_pressure;Samples;Min_cycle;Max_cycle;Signal;HPM_P1;HPM_P2
2022/04/17 00:00:55;;;;;;;13.60;10.48;;;5.90;99.90;;;;;;4994812;28;95942;-35
2022/04/17 00:03:24;;;;;;;12.15;9.73;;;5.80;99.90;;;;;;4996281;28;94605;-34
2022/04/17 00:05:50;;;;;;;10.80;9.60;;;5.80;99.90;;;;;;4996863;28;93967;-33
2022/04/17 00:08:16;;;;;;;11.93;10.60;;;5.70;99.90;;;;;;4994342;28;94686;-34
2022/04/17 00:10:43;;;;;;;13.80;10.75;;;5.60;99.90;;;;;;4995975;28;95571;-33
2022/04/17 00:13:08;;;;;;;11.60;10.50;;;5.60;99.90;;;;;;4996102;28;94478;-35
2022/04/17 00:15:34;;;;;;;12.77;11.10;;;5.60;99.90;;;;;;4995488;28;92456;-39
2022/04/17 00:18:00;;;;;;;10.55;9.38;;;5.60;99.90;;;;;;4996658;28;93940;-34
2022/04/17 00:20:26;;;;;;;11.75;10.55;;;5.60;99.90;;;;;;4995947;28;94724;-34
2022/04/17 00:22:51;;;;;;;11.57;10.38;;;5.50;99.90;;;;;;4995527;28;94140;-39
2022/04/17 00:25:18;;;;;;;14.85;11.45;;;5.50;99.90;;;;;;4995403;28;95041;-38
2022/04/17 00:27:44;;;;;;;13.05;11.27;;;5.50;99.90;;;;;;4995027;28;95072;-33
2022/04/17 00:30:10;;;;;;;11.68;10.63;;;5.50;99.90;;;;;;4987583;22;93597;-34
2022/04/17 00:32:36;;;;;;;13.65;12.20;;;5.60;99.90;;;;;;4936387;28;94477;-33
2022/04/17 00:35:06;;;;;;;13.60;10.88;;;5.60;99.90;;;;;;4936384;28;94827;-37
2022/04/17 00:37:32;;;;;;;14.98;11.63;;;5.70;99.90;;;;;;4936137;28;93017;-35
2022/04/17 00:39:58;;;;;;;12.43;11.23;;;5.70;99.90;;;;;;4936304;28;94620;-34
2022/04/17 00:42:24;;;;;;;17.30;12.13;;;5.70;99.90;;;;;;4936160;28;94429;-35
2022/04/17 00:44:49;;;;;;;12.07;10.88;;;5.70;99.90;;;;;;4936338;28;92125;-35
2022/04/17 00:47:18;;;;;;;12.52;11.30;;;5.70;99.90;;;;;;4936707;28;94261;-35
2022/04/17 00:49:45;;;;;;;13.45;12.20;;;5.70;99.90;;;;;;4934818;28;95537;-34
2022/04/17 00:52:11;;;;;;;13.57;12.17;;;5.70;99.90;;;;;;4935451;28;94857;-33
2022/04/17 00:54:46;;;;;;;14.60;13.13;;;5.70;99.90;;;;;;4937573;28;92529;-35
2022/04/17 00:57:15;;;;;;;14.02;12.30;;;5.70;99.90;;;;;;4939051;28;92774;-37
2022/04/17 00:59:42;;;;;;;12.52;11.32;;;5.70;99.90;;;;;;4938401;28;94809;-35
2022/04/17 01:02:09;;;;;;;14.30;12.38;;;5.70;99.90;;;;;;4939634;28;94512;-39
2022/04/17 01:04:35;;;;;;;13.25;12.05;;;5.70;99.90;;;;;;4939399;28;94152;-37
2022/04/17 01:07:02;;;;;;;15.13;13.20;;;5.70;99.90;;;;;;4938699;28;94200;-35
2022/04/17 01:09:28;;;;;;;12.57;11.38;;;5.70;99.90;;;;;;4939173;28;95067;-34
2022/04/17 01:11:54;;;;;;;14.35;12.57;;;5.80;99.90;;;;;;4939313;28;94757;-32
2022/04/17 01:14:20;;;;;;;16.60;11.95;;;5.90;99.90;;;;;;4938849;28;95236;-36
2022/04/17 01:16:46;;;;;;;13.80;12.45;;;5.80;99.90;;;;;;4939300;28;94387;-34
2022/04/17 01:19:12;;;;;;;18.63;12.77;;;5.80;99.90;;;;;;4938718;28;94490;-34
2022/04/17 01:21:39;;;;;;;13.80;12.43;;;5.80;99.90;;;;;;4938480;28;94980;-37
2022/04/17 01:26:58;;;;;;;17.08;13.00;;;5.80;99.90;;;;;;4953789;28;92169;-33
2022/04/17 01:29:38;;;;;;;13.50;12.13;;;5.80;99.90;;;;;;4938304;28;94735;-36
2022/04/17 01:32:09;;;;;;;14.18;12.77;;;5.70;99.90;;;;;;4937746;28;95076;-38
2022/04/17 01:34:36;;;;;;;13.93;12.30;;;5.80;99.90;;;;;;4938339;28;93692;-37
2022/04/17 01:37:02;;;;;;;13.65;12.25;;;5.70;99.90;;;;;;4939629;28;93640;-35
2022/04/17 01:39:29;;;;;;;13.82;12.38;;;5.70;99.90;;;;;;4938191;28;95560;-34
2022/04/17 01:41:56;;;;;;;13.05;11.85;;;5.70;99.90;;;;;;4937773;28;95347;-33
2022/04/17 01:44:21;;;;;;;14.93;13.40;;;5.60;99.90;;;;;;4938994;28;92105;-36
2022/04/17 01:46:47;;;;;;;17.88;14.05;;;5.60;99.90;;;;;;4938454;28;93691;-35
2022/04/17 01:49:15;;;;;;;19.45;14.52;;;5.60;99.90;;;;;;4938229;28;94810;-36
2022/04/17 01:51:42;;;;;;;15.10;13.50;;;5.60;99.90;;;;;;4938314;28;94968;-34
2022/04/17 01:54:13;;;;;;;15.23;13.75;;;5.60;99.90;;;;;;4939103;28;92153;-34
2022/04/17 01:56:40;;;;;;;15.27;13.45;;;5.60;99.90;;;;;;4939033;28;94190;-33
2022/04/17 01:59:06;;;;;;;16.75;14.18;;;5.60;99.90;;;;;;4938762;28;95050;-33
2022/04/17 02:01:33;;;;;;;18.58;14.52;;;5.60;99.90;;;;;;4938129;28;94579;-35
2022/04/17 02:04:03;;;;;;;15.15;12.95;;;5.60;99.90;;;;;;4938167;28;94690;-38
2022/04/17 02:06:29;;;;;;;15.93;13.73;;;5.70;99.90;;;;;;4937718;28;92164;-35
2022/04/17 02:08:55;;;;;;;14.98;13.48;;;5.60;99.90;;;;;;4937945;28;95300;-34
2022/04/17 02:11:22;;;;;;;15.27;13.68;;;5.60;99.90;;;;;;4937975;28;94521;-36
2022/04/17 02:13:50;;;;;;;14.52;12.45;;;5.60;99.90;;;;;;4938462;28;94339;-35
2022/04/17 02:16:17;;;;;;;16.85;13.75;;;5.50;99.90;;;;;;4938886;28;93160;-35
2022/04/17 02:18:49;;;;;;;16.17;14.30;;;5.50;99.90;;;;;;4937714;28;94438;-37
2022/04/17 02:21:17;;;;;;;18.20;14.55;;;5.40;99.90;;;;;;4938358;28;94988;-34
2022/04/17 02:23:43;;;;;;;16.67;13.53;;;5.40;99.90;;;;;;4937735;28;93405;-33
2022/04/17 02:26:11;;;;;;;15.65;13.20;;;5.30;99.90;;;;;;4937831;28;92365;-36
2022/04/17 02:28:37;;;;;;;16.00;14.13;;;5.40;99.90;;;;;;4937054;28;95708;-33
2022/04/17 02:31:04;;;;;;;18.25;13.40;;;5.30;99.90;;;;;;4938080;28;95022;-34
2022/04/17 02:33:30;;;;;;;15.00;13.43;;;5.30;99.90;;;;;;4937953;28;94015;-34
2022/04/17 02:35:56;;;;;;;17.70;14.45;;;5.30;99.90;;;;;;4937680;28;93316;-35
2022/04/17 02:38:22;;;;;;;15.65;13.50;;;5.20;99.90;;;;;;4937734;28;94178;-34
2022/04/17 02:40:48;;;;;;;17.98;15.13;;;5.20;99.90;;;;;;4937677;28;94611;-38
2022/04/17 02:43:13;;;;;;;14.95;13.35;;;5.10;99.90;;;;;;4938432;28;94407;-33
2022/04/17 02:45:39;;;;;;;18.90;15.02;;;5.10;99.90;;;;;;4937863;28;92658;-33
2022/04/17 02:48:05;;;;;;;19.10;14.93;;;4.90;99.90;;;;;;4937642;28;94580;-36
2022/04/17 02:50:31;;;;;;;15.50;14.00;;;4.90;99.90;;;;;;4937360;28;94659;-37
2022/04/17 02:52:57;;;;;;;17.30;14.65;;;4.80;99.90;;;;;;4937492;28;93249;-33
2022/04/17 02:55:22;;;;;;;17.80;14.77;;;4.70;99.90;;;;;;4938264;28;94964;-34
2022/04/17 02:57:48;;;;;;;16.73;13.57;;;4.70;99.90;;;;;;4936339;28;95431;-33
2022/04/17 03:00:14;;;;;;;16.55;14.85;;;4.70;99.90;;;;;;4937902;28;94527;-34
2022/04/17 03:05:36;;;;;;;16.15;14.45;;;4.70;99.90;;;;;;4937917;28;92286;-33
2022/04/17 03:08:09;;;;;;;18.33;14.23;;;4.70;99.90;;;;;;4937484;28;94640;-36
2022/04/17 03:10:40;;;;;;;19.05;15.73;;;4.70;99.90;;;;;;4936553;28;94595;-35
2022/04/17 03:13:06;;;;;;;15.90;14.45;;;4.70;99.90;;;;;;4937029;28;92922;-33
2022/04/17 03:15:34;;;;;;;15.65;14.15;;;4.70;99.90;;;;;;4937783;28;92190;-35
2022/04/17 03:18:00;;;;;;;16.35;14.70;;;4.60;99.90;;;;;;4936623;28;96726;-34
2022/04/17 03:20:26;;;;;;;18.30;15.82;;;4.60;99.90;;;;;;4936789;28;96711;-37
2022/04/17 03:22:52;;;;;;;17.52;15.90;;;4.60;99.90;;;;;;4936726;28;92787;-34
2022/04/17 03:25:18;;;;;;;17.30;15.63;;;4.40;99.90;;;;;;4937565;28;94389;-32
2022/04/17 03:27:46;;;;;;;17.50;15.55;;;4.40;99.90;;;;;;4936689;28;95778;-32
2022/04/17 03:30:16;;;;;;;16.98;15.23;;;4.40;99.90;;;;;;4936663;28;94250;-37
2022/04/17 03:32:49;;;;;;;18.05;16.25;;;4.40;99.90;;;;;;4936640;28;92606;-37
2022/04/17 03:35:16;;;;;;;17.80;16.02;;;4.50;99.90;;;;;;4937590;28;92813;-35
2022/04/17 03:37:42;;;;;;;18.73;16.77;;;4.50;99.90;;;;;;4936092;28;94536;-34
2022/04/17 03:40:12;;;;;;;18.58;16.15;;;4.50;99.90;;;;;;4937774;28;93165;-32
2022/04/17 03:42:39;;;;;;;20.17;16.02;;;4.50;99.90;;;;;;4936664;28;94174;-35
2022/04/17 03:45:09;;;;;;;23.00;17.17;;;4.50;99.90;;;;;;4936417;28;93497;-35
2022/04/17 03:47:35;;;;;;;20.20;16.35;;;4.50;99.90;;;;;;4936602;28;96204;-38
2022/04/17 03:50:03;;;;;;;19.05;17.08;;;4.50;99.90;;;;;;4936411;28;94594;-34
2022/04/17 03:52:38;;;;;;;18.13;16.38;;;4.40;99.90;;;;;;4937237;28;94002;-38
2022/04/17 03:55:04;;;;;;;22.02;19.58;;;4.50;99.90;;;;;;4936864;28;92976;-33
2022/04/17 03:57:30;;;;;;;19.10;17.27;;;4.50;99.90;;;;;;4934998;28;95555;-32
2022/04/17 03:59:55;;;;;;;17.83;15.93;;;4.50;99.90;;;;;;4936464;28;102940;-36
2022/04/17 04:02:21;;;;;;;16.48;14.90;;;4.40;99.90;;;;;;4936204;28;92567;-36
2022/04/17 04:04:46;;;;;;;19.27;16.67;;;4.20;99.90;;;;;;4936585;28;94974;-36
2022/04/17 04:07:12;;;;;;;17.33;15.63;;;4.00;99.90;;;;;;4935352;28;102170;-35
2022/04/17 04:09:37;;;;;;;21.70;18.50;;;3.90;99.90;;;;;;4936312;28;95080;-38
2022/04/17 04:12:05;;;;;;;20.48;18.10;;;3.80;99.90;;;;;;4936943;28;92665;-33
2022/04/17 04:14:30;;;;;;;21.38;19.08;;;3.70;99.90;;;;;;4936410;28;92166;-35
2022/04/17 04:16:56;;;;;;;21.92;17.58;;;3.60;99.90;;;;;;4936633;28;94505;-36
2022/04/17 04:19:21;;;;;;;22.10;17.48;;;3.50;99.90;;;;;;4936354;28;96774;-37
2022/04/17 04:21:47;;;;;;;19.90;17.80;;;3.50;99.90;;;;;;4936157;28;93657;-35
2022/04/17 04:24:14;;;;;;;19.30;15.82;;;3.40;99.90;;;;;;4937243;28;93158;-33
2022/04/17 04:26:42;;;;;;;17.88;15.93;;;3.50;99.90;;;;;;4936246;28;95132;-37
2022/04/17 04:29:07;;;;;;;17.90;15.93;;;3.50;99.90;;;;;;4935979;28;95776;-33
2022/04/17 04:31:33;;;;;;;20.63;17.45;;;3.30;99.90;;;;;;4940400;28;94423;-33
2022/04/17 04:33:58;;;;;;;23.90;18.42;;;3.10;99.90;;;;;;4939540;28;93700;-35
2022/04/17 04:36:24;;;;;;;22.20;19.33;;;3.20;99.90;;;;;;4939940;28;95693;-35
2022/04/17 04:38:49;;;;;;;26.08;18.95;;;3.10;99.90;;;;;;4939101;28;94589;-37
2022/04/17 04:41:15;;;;;;;21.80;18.42;;;3.10;99.90;;;;;;4939813;28;93141;-34
2022/04/17 04:43:41;;;;;;;20.98;18.48;;;3.20;99.90;;;;;;4939682;28;94632;-33
2022/04/17 04:46:06;;;;;;;21.35;17.85;;;3.40;99.90;;;;;;4939168;28;99194;-34
2022/04/17 04:51:29;;;;;;;21.40;18.67;;;3.60;99.90;;;;;;4940035;28;94541;-35
2022/04/17 04:53:56;;;;;;;20.63;17.55;;;3.90;99.90;;;;;;4939274;28;94614;-33
2022/04/17 04:56:23;;;;;;;19.48;17.10;;;4.00;99.90;;;;;;4938761;28;96495;-34
2022/04/17 04:58:49;;;;;;;20.35;17.75;;;3.80;99.90;;;;;;4939357;28;95306;-33
2022/04/17 05:01:15;;;;;;;20.65;17.58;;;3.90;99.90;;;;;;4938934;28;92545;-35
2022/04/17 05:03:41;;;;;;;20.60;16.88;;;3.80;99.90;;;;;;4939664;28;94289;-34
2022/04/17 05:06:07;;;;;;;19.63;17.48;;;3.70;99.90;;;;;;4939022;28;93402;-36
2022/04/17 05:08:33;;;;;;;23.42;20.75;;;3.60;99.90;;;;;;4939593;28;94726;-35
2022/04/17 05:10:59;;;;;;;22.50;20.35;;;3.70;99.90;;;;;;4939573;28;94716;-37
2022/04/17 05:13:25;;;;;;;23.08;20.80;;;3.90;99.90;;;;;;4939125;28;92761;-38
2022/04/17 05:15:50;;;;;;;24.05;19.88;;;4.00;99.90;;;;;;4938826;28;95000;-35
2022/04/17 05:18:16;;;;;;;23.40;21.13;;;4.10;99.90;;;;;;4938916;28;96007;-33
2022/04/17 05:20:42;;;;;;;23.70;20.45;;;4.20;99.90;;;;;;4938084;28;95143;-33
2022/04/17 05:23:17;;;;;;;23.58;20.00;;;4.30;99.90;;;;;;4939484;28;92254;-33
2022/04/17 05:25:44;;;;;;;22.75;20.40;;;4.40;99.90;;;;;;4938306;28;94200;-35
2022/04/17 05:28:10;;;;;;;23.70;20.67;;;4.50;99.90;;;;;;4938864;28;95048;-38
2022/04/17 05:30:36;;;;;;;21.67;19.52;;;4.60;99.90;;;;;;4938623;28;92501;-33
2022/04/17 05:33:01;;;;;;;22.48;20.15;;;4.80;99.90;;;;;;4938861;28;94443;-37
2022/04/17 05:35:27;;;;;;;22.35;19.98;;;4.80;99.90;;;;;;4938500;28;94765;-35
2022/04/17 05:37:52;;;;;;;22.85;20.40;;;4.90;99.90;;;;;;4938553;28;94669;-35
2022/04/17 05:40:18;;;;;;;22.88;20.20;;;4.90;99.90;;;;;;4939260;28;92263;-33
2022/04/17 05:42:44;;;;;;;23.55;20.95;;;4.90;99.90;;;;;;4939037;28;94824;-33
2022/04/17 05:45:10;;;;;;;22.35;19.73;;;5.00;99.90;;;;;;4938084;28;95588;-36
2022/04/17 05:47:36;;;;;;;21.60;18.48;;;5.00;99.90;;;;;;4939031;28;95305;-37
2022/04/17 05:50:02;;;;;;;21.23;19.02;;;5.10;99.90;;;;;;4938253;28;92738;-33
2022/04/17 05:52:28;;;;;;;22.05;19.80;;;5.20;99.90;;;;;;4938391;28;92995;-37
2022/04/17 05:54:53;;;;;;;22.10;19.77;;;5.20;99.90;;;;;;4938443;28;94532;-35
2022/04/17 05:57:19;;;;;;;23.83;21.05;;;5.20;99.90;;;;;;4938380;28;94620;-33
2022/04/17 05:59:46;;;;;;;21.55;19.48;;;5.20;99.90;;;;;;4938085;28;94923;-37
2022/04/17 06:02:15;;;;;;;20.98;18.95;;;5.30;99.90;;;;;;4938437;28;92186;-37
2022/04/17 06:04:41;;;;;;;22.58;19.30;;;5.30;99.90;;;;;;4937689;28;94712;-34
2022/04/17 06:07:08;;;;;;;22.90;20.15;;;5.40;99.90;;;;;;4938392;28;94880;-34
2022/04/17 06:09:34;;;;;;;22.20;19.90;;;5.50;99.90;;;;;;4938273;28;94087;-38
2022/04/17 06:12:00;;;;;;;22.88;20.67;;;5.40;99.90;;;;;;4938207;28;92939;-34
2022/04/17 06:14:25;;;;;;;21.92;19.73;;;5.50;99.90;;;;;;4937501;28;94572;-36
2022/04/17 06:16:51;;;;;;;24.02;20.33;;;5.50;99.90;;;;;;4937675;28;94471;-35
2022/04/17 06:19:17;;;;;;;25.45;22.70;;;5.50;99.90;;;;;;4938383;28;92225;-35
2022/04/17 06:21:43;;;;;;;24.23;20.92;;;5.60;99.90;;;;;;4938601;28;94066;-32
2022/04/17 06:24:09;;;;;;;23.98;21.48;;;5.70;99.90;;;;;;4937581;28;95053;-34
2022/04/17 06:26:34;;;;;;;24.17;21.73;;;5.80;99.90;;;;;;4938658;28;94608;-38
2022/04/17 06:29:07;;;;;;;25.58;22.75;;;5.90;99.90;;;;;;4937522;28;94750;-34
2022/04/17 06:31:33;;;;;;;23.35;20.95;;;6.00;99.90;;;;;;4938487;28;94576;-34
2022/04/17 06:33:59;;;;;;;24.33;22.13;;;6.10;99.90;;;;;;4937251;28;95712;-33
2022/04/17 06:36:24;;;;;;;28.40;23.40;;;6.20;99.90;;;;;;4937637;28;95355;-37
2022/04/17 06:38:50;;;;;;;25.10;22.30;;;6.40;99.90;;;;;;4936123;28;94484;-34
2022/04/17 06:41:15;;;;;;;24.73;22.02;;;6.50;99.90;;;;;;4937540;28;94033;-36
2022/04/17 06:43:41;;;;;;;26.15;23.50;;;6.70;99.90;;;;;;4937756;28;94576;-34
2022/04/17 06:46:07;;;;;;;26.42;23.50;;;6.90;99.90;;;;;;4937156;28;94520;-34
2022/04/17 06:48:32;;;;;;;23.30;20.08;;;7.00;99.90;;;;;;4938188;28;93019;-35
2022/04/17 06:50:58;;;;;;;25.83;22.02;;;7.20;99.90;;;;;;4937051;28;93568;-34
2022/04/17 06:53:24;;;;;;;25.83;22.77;;;7.30;99.90;;;;;;4935206;28;94701;-38
2022/04/17 06:55:50;;;;;;;29.50;23.17;;;7.60;99.90;;;;;;4937552;28;95419;-34
2022/04/17 06:58:17;;;;;;;25.55;22.88;;;7.80;99.90;;;;;;4937301;28;94258;-34
2022/04/17 07:00:43;;;;;;;25.58;21.55;;;7.90;99.90;;;;;;4937318;28;94601;-35
2022/04/17 07:03:08;;;;;;;25.20;22.58;;;8.20;99.90;;;;;;4937933;28;94828;-35
2022/04/17 07:05:34;;;;;;;24.20;21.77;;;8.40;99.90;;;;;;4936754;28;92810;-40
2022/04/17 07:08:05;;;;;;;30.10;22.58;;;8.70;99.90;;;;;;4938378;28;94880;-33
2022/04/17 07:10:32;;;;;;;24.55;21.80;;;9.00;99.90;;;;;;4937449;28;94348;-34
2022/04/17 07:12:58;;;;;;;28.17;22.08;;;9.50;99.90;;;;;;4936951;28;94936;-35
2022/04/17 07:15:26;;;;;;;25.75;21.17;;;9.60;99.90;;;;;;4937517;28;94607;-37
2022/04/17 07:17:55;;;;;;;23.92;21.52;;;9.70;99.90;;;;;;4937022;28;94918;-36
2022/04/17 07:20:21;;;;;;;23.98;19.52;;;10.00;99.90;;;;;;4937809;28;93117;-34
2022/04/17 07:22:47;;;;;;;24.80;20.50;;;10.10;99.90;;;;;;4936474;28;95635;-34
2022/04/17 07:25:14;;;;;;;21.83;19.40;;;10.20;99.90;;;;;;4936646;28;94752;-35
2022/04/17 07:27:45;;;;;;;21.67;19.50;;;10.50;97.40;;;;;;4935635;28;94247;-38
2022/04/17 07:30:21;;;;;;;22.27;18.98;;;10.90;98.90;;;;;;4917001;28;94867;-38
2022/04/17 07:32:49;;;;;;;19.30;17.40;;;11.00;96.50;;;;;;4916098;28;95259;-37
2022/04/17 07:35:16;;;;;;;23.40;17.35;;;11.40;95.30;;;;;;4915869;28;95027;-36
2022/04/17 07:37:50;;;;;;;20.13;17.38;;;11.70;85.70;;;;;;4914969;28;94571;-36
2022/04/17 07:40:20;;;;;;;18.38;16.63;;;11.70;74.80;;;;;;4916222;28;92420;-38
2022/04/17 07:42:47;;;;;;;23.08;17.33;;;11.80;70.70;;;;;;4915629;28;94532;-34
2022/04/17 07:45:14;;;;;;;16.42;14.98;;;11.90;77.10;;;;;;4915476;28;95220;-33
2022/04/17 07:47:39;;;;;;;18.67;16.05;;;12.20;80.60;;;;;;4914998;28;94765;-34
2022/04/17 07:50:07;;;;;;;20.75;15.75;;;12.30;79.40;;;;;;4915399;28;93305;-36
2022/04/17 07:52:35;;;;;;;17.65;15.77;;;12.40;69.50;;;;;;4915739;28;94782;-35
2022/04/17 07:55:03;;;;;;;20.50;16.13;;;12.50;74.20;;;;;;4914839;28;95005;-38
2022/04/17 07:57:29;;;;;;;20.13;15.85;;;12.90;73.70;;;;;;4915442;28;93359;-35
2022/04/17 07:59:55;;;;;;;24.67;15.00;;;13.00;69.40;;;;;;4915413;28;93277;-36
2022/04/17 08:02:22;;;;;;;17.50;15.57;;;13.00;67.70;;;;;;4915263;28;94826;-37
2022/04/17 08:04:54;;;;;;;18.95;15.23;;;13.20;68.00;;;;;;4917142;28;94711;-36
2022/04/17 08:07:20;;;;;;;16.73;15.02;;;13.20;66.00;;;;;;4919040;28;95188;-33
2022/04/17 08:09:46;;;;;;;15.82;13.82;;;13.10;65.90;;;;;;4918237;28;93438;-37
2022/04/17 08:12:12;;;;;;;12.75;11.45;;;13.30;65.00;;;;;;4918415;28;95665;-34
2022/04/17 08:14:38;;;;;;;17.05;13.38;;;13.60;61.80;;;;;;4918466;28;95082;-33
2022/04/17 08:17:04;;;;;;;13.93;11.80;;;13.90;64.00;;;;;;4919230;28;93426;-34
2022/04/17 08:19:31;;;;;;;12.45;10.82;;;14.00;61.90;;;;;;4919124;28;93636;-35
2022/04/17 08:21:58;;;;;;;16.08;10.50;;;13.80;60.40;;;;;;4917496;28;95008;-35
2022/04/17 08:24:23;;;;;;;11.18;10.10;;;13.70;59.30;;;;;;4918391;28;94640;-35
2022/04/17 08:26:49;;;;;;;11.00;9.95;;;14.10;59.90;;;;;;4918059;28;94381;-36
2022/04/17 08:29:17;;;;;;;12.73;11.30;;;14.10;57.40;;;;;;4918662;28;91971;-36
2022/04/17 08:31:42;;;;;;;10.63;9.52;;;14.70;57.90;;;;;;4917964;28;94745;-36
2022/04/17 08:34:08;;;;;;;12.00;9.80;;;14.50;55.60;;;;;;4918386;28;94464;-37
2022/04/17 08:36:34;;;;;;;14.02;9.23;;;14.40;56.70;;;;;;4918164;28;95308;-38
2022/04/17 08:38:59;;;;;;;13.73;10.50;;;14.80;56.40;;;;;;4918979;28;94153;-34
2022/04/17 08:41:26;;;;;;;15.15;11.05;;;14.60;53.90;;;;;;4917659;28;94814;-37
2022/04/17 08:43:52;;;;;;;12.98;9.82;;;14.70;56.70;;;;;;4918104;28;94619;-36
2022/04/17 08:46:18;;;;;;;10.65;9.60;;;14.60;55.60;;;;;;4918636;28;94169;-37
2022/04/17 08:48:44;;;;;;;10.88;9.77;;;14.30;53.70;;;;;;4918369;28;93845;-33
2022/04/17 08:51:10;;;;;;;10.07;9.07;;;14.90;54.40;;;;;;4919016;28;94561;-36
2022/04/17 08:53:36;;;;;;;12.23;9.15;;;14.70;54.20;;;;;;4918654;28;94658;-33
2022/04/17 08:56:02;;;;;;;9.68;8.73;;;14.90;54.30;;;;;;4919244;28;93136;-34
2022/04/17 08:58:28;;;;;;;9.98;9.02;;;15.00;53.80;;;;;;4918349;28;94707;-36
2022/04/17 09:00:53;;;;;;;10.23;9.02;;;15.20;53.90;;;;;;4917078;28;96784;-37
2022/04/17 09:03:19;;;;;;;12.80;9.05;;;15.50;53.70;;;;;;4918998;28;94523;-34
2022/04/17 09:05:45;;;;;;;9.02;8.18;;;15.50;53.20;;;;;;4918162;28;94728;-35
2022/04/17 09:08:18;;;;;;;10.20;8.77;;;15.40;51.60;;;;;;4919189;28;93511;-37
2022/04/17 09:11:02;;;;;;;11.00;8.90;;;15.70;52.70;;;;;;4917890;28;94483;-36
2022/04/17 09:13:33;;;;;;;9.38;8.25;;;15.70;52.30;;;;;;4918761;28;94450;-38
2022/04/17 09:16:02;;;;;;;9.32;8.32;;;15.70;51.40;;;;;;4917860;28;93356;-34
2022/04/17 09:18:30;;;;;;;9.27;8.30;;;15.80;50.40;;;;;;4919481;28;92443;-36
2022/04/17 09:20:58;;;;;;;9.73;8.02;;;15.90;52.30;;;;;;4918107;28;94628;-35
2022/04/17 09:23:38;;;;;;;10.93;7.88;;;16.00;52.00;;;;;;4917204;28;94391;-36
2022/04/17 09:26:05;;;;;;;9.77;8.75;;;16.00;49.70;;;;;;4918162;28;95346;-35
2022/04/17 09:28:35;;;;;;;10.63;9.27;;;16.60;51.90;;;;;;4916810;28;93994;-35
2022/04/17 09:31:09;;;;;;;10.35;8.52;;;15.70;48.90;;;;;;4916718;28;94837;-38
2022/04/17 09:33:37;;;;;;;8.73;7.93;;;16.10;50.60;;;;;;4917629;28;93920;-36
2022/04/17 09:36:03;;;;;;;11.67;8.77;;;15.90;49.10;;;;;;4917719;28;92585;-33
2022/04/17 09:38:35;;;;;;;9.45;8.55;;;15.80;47.90;;;;;;4931268;28;93441;-38
2022/04/17 09:41:13;;;;;;;8.57;7.70;;;16.10;49.80;;;;;;4921342;28;95266;-37
2022/04/17 09:43:39;;;;;;;7.95;6.85;;;15.90;48.80;;;;;;4933741;28;96209;-36
2022/04/17 09:46:09;;;;;;;7.88;7.07;;;16.20;49.30;;;;;;4932968;28;93127;-36
2022/04/17 09:48:36;;;;;;;9.15;7.10;;;16.20;49.30;;;;;;4916553;28;94613;-39
2022/04/17 09:51:22;;;;;;;7.72;6.80;;;16.50;48.10;;;;;;4916682;28;95346;-37
2022/04/17 09:54:08;;;;;;;8.38;7.30;;;16.50;47.30;;;;;;4917037;28;97121;-34
2022/04/17 09:56:40;;;;;;;6.93;6.32;;;16.30;47.90;;;;;;4917216;28;93156;-35
2022/04/17 09:59:21;;;;;;;9.13;7.65;;;16.40;48.00;;;;;;4917478;28;93644;-33
2022/04/17 10:01:50;;;;;;;10.88;7.53;;;16.20;47.00;;;;;;4917643;28;95372;-34
2022/04/17 10:04:19;;;;;;;8.73;6.85;;;16.70;49.50;;;;;;4917438;28;94709;-35
2022/04/17 10:06:46;;;;;;;7.55;6.35;;;16.60;48.40;;;;;;4917506;28;94480;-35
2022/04/17 10:09:13;;;;;;;8.02;7.13;;;16.80;48.90;;;;;;4918011;28;92321;-37
2022/04/17 10:11:40;;;;;;;7.68;6.30;;;16.70;47.20;;;;;;4916938;28;94798;-40
2022/04/17 10:14:06;;;;;;;10.48;7.85;;;17.00;46.00;;;;;;4917743;28;93491;-35
2022/04/17 10:16:33;;;;;;;8.40;7.45;;;16.60;49.00;;;;;;4917635;28;94792;-37
2022/04/17 10:19:06;;;;;;;7.15;6.45;;;16.80;46.40;;;;;;4917199;28;92690;-33
2022/04/17 10:21:35;;;;;;;7.93;7.22;;;16.60;45.30;;;;;;4917185;28;94848;-37
2022/04/17 10:24:03;;;;;;;8.93;7.32;;;16.30;45.80;;;;;;4917266;28;94696;-36
2022/04/17 10:26:36;;;;;;;6.65;6.05;;;16.60;47.00;;;;;;4916179;28;93215;-34
2022/04/17 10:29:06;;;;;;;15.70;7.65;;;16.60;46.60;;;;;;4917264;28;93819;-32
2022/04/17 10:32:12;;;;;;;8.45;6.85;;;16.70;47.20;;;;;;4917549;28;94681;-33
2022/04/17 10:34:51;;;;;;;8.15;7.40;;;16.90;49.00;;;;;;4917845;28;93889;-34
2022/04/17 10:37:46;;;;;;;8.05;6.13;;;17.00;47.00;;;;;;4917102;28;92903;-36
2022/04/17 10:40:12;;;;;;;10.00;7.28;;;17.10;45.00;;;;;;4916477;28;93558;-34
2022/04/17 10:42:55;;;;;;;9.88;7.55;;;17.00;44.20;;;;;;4916208;28;95728;-40
2022/04/17 10:45:22;;;;;;;8.63;6.85;;;16.60;44.80;;;;;;4916743;28;95521;-38
2022/04/17 10:48:10;;;;;;;7.47;6.57;;;16.50;45.40;;;;;;4916587;28;95053;-37
2022/04/17 10:50:48;;;;;;;6.78;4.80;;;16.70;45.00;;;;;;4916216;28;94173;-38
2022/04/17 10:53:27;;;;;;;7.32;6.03;;;16.80;43.80;;;;;;4917843;28;95205;-35
2022/04/17 10:56:05;;;;;;;6.63;6.03;;;17.40;44.30;;;;;;4915499;28;95389;-34
2022/04/17 10:58:48;;;;;;;8.63;6.72;;;17.50;43.50;;;;;;4917480;28;94432;-37
2022/04/17 11:01:15;;;;;;;9.15;6.53;;;17.20;44.90;;;;;;4917034;28;92234;-36
2022/04/17 11:03:52;;;;;;;6.53;5.75;;;16.70;47.80;;;;;;4916535;28;94884;-36
2022/04/17 11:06:30;;;;;;;8.32;6.78;;;17.10;46.30;;;;;;4916847;28;94976;-34
2022/04/17 11:09:10;;;;;;;;;;;16.80;44.00;;;;;;4917567;28;95387;-37
2022/04/17 11:11:39;;;;;;;7.88;6.22;;;17.10;44.60;;;;;;4918105;28;92640;-35
2022/04/17 11:14:10;;;;;;;8.50;7.68;;;17.40;45.90;;;;;;4916499;28;94918;-35
2022/04/17 11:16:38;;;;;;;7.63;6.90;;;17.60;45.00;;;;;;4916101;28;94660;-34
2022/04/17 11:19:06;;;;;;;8.18;6.35;;;17.50;44.20;;;;;;4917014;28;92618;-36
2022/04/17 11:21:41;;;;;;;8.83;8.07;;;17.50;44.20;;;;;;4916812;28;94365;-35
2022/04/17 11:24:07;;;;;;;10.60;7.00;;;17.70;44.10;;;;;;4914835;28;94750;-37
2022/04/17 11:26:54;;;;;;;10.93;8.02;;;17.70;45.90;;;;;;4917098;28;94503;-37
2022/04/17 11:29:32;;;;;;;7.03;6.15;;;16.90;43.00;;;;;;4916436;28;94064;-38
2022/04/17 11:31:58;;;;;;;9.50;6.93;;;17.10;43.90;;;;;;4915965;28;93595;-39
2022/04/17 11:34:24;;;;;;;8.98;7.63;;;17.00;43.50;;;;;;4915817;28;95660;-37
2022/04/17 11:36:50;;;;;;;8.02;7.25;;;16.90;43.50;;;;;;4915980;28;95442;-35
2022/04/17 11:39:26;;;;;;;10.82;7.50;;;17.20;44.60;;;;;;4916152;28;94310;-33
2022/04/17 11:41:52;;;;;;;8.48;7.63;;;17.80;45.50;;;;;;4916067;28;94090;-34
2022/04/17 11:44:18;;;;;;;9.02;6.95;;;17.50;43.90;;;;;;4916693;28;95346;-34
2022/04/17 11:46:43;;;;;;;8.82;7.90;;;16.90;43.10;;;;;;4923421;28;94429;-34
2022/04/17 11:49:09;;;;;;;8.68;7.57;;;16.90;44.70;;;;;;4922113;28;95071;-38
2022/04/17 11:51:44;;;;;;;7.60;6.88;;;16.90;44.10;;;;;;4916437;28;92944;-38
2022/04/17 11:54:34;;;;;;;7.30;6.43;;;17.00;42.80;;;;;;4915439;28;94933;-34
2022/04/17 11:57:00;;;;;;;9.15;6.88;;;17.30;42.90;;;;;;4914718;28;94628;-37
2022/04/17 11:59:26;;;;;;;11.50;7.18;;;17.40;42.90;;;;;;4926073;28;93760;-35
2022/04/17 12:02:14;;;;;;;8.10;6.78;;;17.50;42.40;;;;;;4920547;28;94237;-34
2022/04/17 12:04:41;;;;;;;6.93;6.22;;;17.10;42.10;;;;;;4934485;28;94866;-36
2022/04/17 12:07:07;;;;;;;8.18;6.15;;;17.10;43.30;;;;;;4935333;28;93224;-34
2022/04/17 12:09:32;;;;;;;6.63;6.03;;;17.50;44.30;;;;;;4935999;28;92504;-36
2022/04/17 12:11:58;;;;;;;6.13;5.53;;;17.50;43.60;;;;;;4934005;28;93751;-38
2022/04/17 12:14:32;;;;;;;7.50;6.80;;;17.30;42.60;;;;;;4935398;28;95461;-37
2022/04/17 12:16:58;;;;;;;8.70;6.28;;;17.20;41.40;;;;;;4934727;28;94220;-34
2022/04/17 12:19:25;;;;;;;7.55;6.85;;;16.90;41.30;;;;;;4935911;28;94836;-38
2022/04/17 12:21:51;;;;;;;10.20;6.65;;;16.90;41.70;;;;;;4934461;28;94274;-37
2022/04/17 12:24:18;;;;;;;9.38;7.03;;;17.00;42.90;;;;;;4933845;28;95878;-33
2022/04/17 12:26:45;;;;;;;6.20;5.57;;;17.20;44.30;;;;;;4934112;28;95406;-36
2022/04/17 12:29:11;;;;;;;7.43;6.70;;;17.40;41.50;;;;;;4981488;22;92573;-34
2022/04/17 12:31:37;;;;;;;8.38;6.93;;;17.40;41.50;;;;;;5013582;28;93432;-34
2022/04/17 12:34:14;;;;;;;8.82;7.38;;;17.60;42.00;;;;;;5013948;28;94253;-38
2022/04/17 12:36:43;;;;;;;7.75;6.93;;;17.70;43.70;;;;;;5013880;28;94650;-35
2022/04/17 12:39:09;;;;;;;9.07;7.32;;;17.50;44.10;;;;;;5014707;28;93833;-35
2022/04/17 12:41:51;;;;;;;9.50;6.70;;;17.10;41.90;;;;;;5014318;28;93919;-35
2022/04/17 12:44:32;;;;;;;7.30;6.70;;;17.30;41.20;;;;;;5013699;28;94926;-33
2022/04/17 12:47:14;;;;;;;9.40;7.18;;;17.30;42.80;;;;;;5013984;28;93376;-38
2022/04/17 12:49:41;;;;;;;9.43;7.30;;;17.30;42.70;;;;;;5013193;28;95366;-39
2022/04/17 12:52:07;;;;;;;8.32;7.53;;;17.50;43.60;;;;;;5017357;28;95718;-35